sensor_id;sensor_type;location;lat;lon;timestamp;temperature;humidity
19646;DHT22;9971;52.446;13.452;2023-02-18T00:01:37;12.40;99.90
19646;DHT22;9971;52.446;13.452;2023-02-18T00:06:39;12.40;99.90
19646;DHT22;9971;52.446;13.452;2023-02-18T00:11:41;12.40;99.90
19646;DHT22;9971;52.446;13.452;2023-02-18T00:16:44;11.60;99.90
19646;DHT22;9971;52.446;13.452;2023-02-18T00:21:45;9.50;99.90
19646;DHT22;9971;52.446;13.452;2023-02-18T00:26:49;9.10;99.90
19646;DHT22;9971;52.446;13.452;2023-02-18T00:31:50;9.30;99.90
19646;DHT22;9971;52.446;13.452;2023-02-18T00:36:52;9.90;99.90
19646;DHT22;9971;52.446;13.452;2023-02-18T00:41:55;10.50;99.90
19646;DHT22;9971;52.446;13.452;2023-02-18T00:46:57;10.90;99.90
19646;DHT22;9971;52.446;13.452;2023-02-18T00:51:59;11.20;99.90
19646;DHT22;9971;52.446;13.452;2023-02-18T00:57:02;11.40;99.90
19646;DHT22;9971;52.446;13.452;2023-02-18T01:02:04;11.50;99.90
19646;DHT22;9971;52.446;13.452;2023-02-18T01:07:06;11.70;99.90
19646;DHT22;9971;52.446;13.452;2023-02-18T01:12:09;11.80;99.90
19646;DHT22;9971;52.446;13.452;2023-02-18T01:17:11;12.00;99.90
19646;DHT22;9971;52.446;13.452;2023-02-18T01:22:14;12.10;99.90
19646;DHT22;9971;52.446;13.452;2023-02-18T01:27:16;12.10;99.90
19646;DHT22;9971;52.446;13.452;2023-02-18T01:32:18;12.20;99.90
19646;DHT22;9971;52.446;13.452;2023-02-18T01:37:21;12.20;99.90
19646;DHT22;9971;52.446;13.452;2023-02-18T01:42:24;12.30;99.90
19646;DHT22;9971;52.446;13.452;2023-02-18T01:47:25;12.30;99.90
19646;DHT22;9971;52.446;13.452;2023-02-18T01:52:28;12.30;99.90
19646;DHT22;9971;52.446;13.452;2023-02-18T01:57:30;12.40;99.90
19646;DHT22;9971;52.446;13.452;2023-02-18T02:02:32;12.40;99.90
19646;DHT22;9971;52.446;13.452;2023-02-18T02:07:34;12.50;99.90
19646;DHT22;9971;52.446;13.452;2023-02-18T02:12:43;12.40;99.90
19646;DHT22;9971;52.446;13.452;2023-02-18T02:23:33;12.40;99.90
19646;DHT22;9971;52.446;13.452;2023-02-18T02:28:59;12.50;99.90
19646;DHT22;9971;52.446;13.452;2023-02-18T02:34:23;12.40;99.90
19646;DHT22;9971;52.446;13.452;2023-02-18T02:39:30;12.30;99.90
19646;DHT22;9971;52.446;13.452;2023-02-18T02:44:35;12.40;99.90
19646;DHT22;9971;52.446;13.452;2023-02-18T02:54:41;12.20;99.90
19646;DHT22;9971;52.446;13.452;2023-02-18T02:59:45;12.30;99.90
19646;DHT22;9971;52.446;13.452;2023-02-18T03:04:49;12.30;99.90
19646;DHT22;9971;52.446;13.452;2023-02-18T03:11:05;12.30;99.90
19646;DHT22;9971;52.446;13.452;2023-02-18T03:15:36;12.30;99.90
19646;DHT22;9971;52.446;13.452;2023-02-18T03:20:35;12.30;99.90
19646;DHT22;9971;52.446;13.452;2023-02-18T03:25:36;12.30;99.90
19646;DHT22;9971;52.446;13.452;2023-02-18T03:30:50;12.30;99.90
19646;DHT22;9971;52.446;13.452;2023-02-18T03:35:52;12.20;99.90
19646;DHT22;9971;52.446;13.452;2023-02-18T03:40:54;12.30;99.90
19646;DHT22;9971;52.446;13.452;2023-02-18T03:45:55;12.30;99.90
19646;DHT22;9971;52.446;13.452;2023-02-18T03:50:58;12.30;99.90
19646;DHT22;9971;52.446;13.452;2023-02-18T03:56:00;12.30;99.90
19646;DHT22;9971;52.446;13.452;2023-02-18T04:01:03;12.30;99.90
19646;DHT22;9971;52.446;13.452;2023-02-18T04:06:05;12.30;99.90
19646;DHT22;9971;52.446;13.452;2023-02-18T04:11:07;12.40;99.90
19646;DHT22;9971;52.446;13.452;2023-02-18T04:16:10;12.40;99.90
19646;DHT22;9971;52.446;13.452;2023-02-18T04:21:12;12.50;99.90
19646;DHT22;9971;52.446;13.452;2023-02-18T04:26:15;12.50;99.90
19646;DHT22;9971;52.446;13.452;2023-02-18T04:31:17;12.60;99.90
19646;DHT22;9971;52.446;13.452;2023-02-18T04:36:19;12.60;99.90
19646;DHT22;9971;52.446;13.452;2023-02-18T04:41:22;12.60;99.90
19646;DHT22;9971;52.446;13.452;2023-02-18T04:46:25;12.60;99.90
19646;DHT22;9971;52.446;13.452;2023-02-18T04:51:27;12.70;99.90
19646;DHT22;9971;52.446;13.452;2023-02-18T04:56:30;12.70;99.90
19646;DHT22;9971;52.446;13.452;2023-02-18T05:01:32;12.70;99.90
19646;DHT22;9971;52.446;13.452;2023-02-18T05:06:35;12.80;99.90
19646;DHT22;9971;52.446;13.452;2023-02-18T05:11:37;12.80;99.90
19646;DHT22;9971;52.446;13.452;2023-02-18T05:16:39;12.90;99.90
19646;DHT22;9971;52.446;13.452;2023-02-18T05:21:41;12.90;99.90
19646;DHT22;9971;52.446;13.452;2023-02-18T05:26:44;13.00;99.90
19646;DHT22;9971;52.446;13.452;2023-02-18T05:31:46;13.10;99.90
19646;DHT22;9971;52.446;13.452;2023-02-18T05:36:49;13.20;99.90
19646;DHT22;9971;52.446;13.452;2023-02-18T05:41:51;13.20;99.90
19646;DHT22;9971;52.446;13.452;2023-02-18T05:46:54;13.30;99.90
19646;DHT22;9971;52.446;13.452;2023-02-18T05:51:56;13.40;99.90
19646;DHT22;9971;52.446;13.452;2023-02-18T05:56:58;13.40;99.90
19646;DHT22;9971;52.446;13.452;2023-02-18T06:02:00;13.50;99.90
19646;DHT22;9971;52.446;13.452;2023-02-18T06:07:03;13.60;99.90
19646;DHT22;9971;52.446;13.452;2023-02-18T06:12:05;13.50;99.90
19646;DHT22;9971;52.446;13.452;2023-02-18T06:17:08;13.50;99.90
19646;DHT22;9971;52.446;13.452;2023-02-18T06:22:10;13.60;99.90
19646;DHT22;9971;52.446;13.452;2023-02-18T06:27:12;13.60;99.90
19646;DHT22;9971;52.446;13.452;2023-02-18T06:32:14;13.70;99.90
19646;DHT22;9971;52.446;13.452;2023-02-18T06:37:17;13.70;99.90
19646;DHT22;9971;52.446;13.452;2023-02-18T06:42:19;13.80;99.90
19646;DHT22;9971;52.446;13.452;2023-02-18T06:47:22;13.80;99.90
19646;DHT22;9971;52.446;13.452;2023-02-18T06:52:25;13.90;99.90
19646;DHT22;9971;52.446;13.452;2023-02-18T06:57:27;13.90;99.90
19646;DHT22;9971;52.446;13.452;2023-02-18T07:02:29;14.00;99.90
19646;DHT22;9971;52.446;13.452;2023-02-18T07:07:32;14.00;99.90
19646;DHT22;9971;52.446;13.452;2023-02-18T07:12:34;14.00;99.90
19646;DHT22;9971;52.446;13.452;2023-02-18T07:17:36;13.90;99.90
19646;DHT22;9971;52.446;13.452;2023-02-18T07:22:39;13.90;99.90
19646;DHT22;9971;52.446;13.452;2023-02-18T07:27:41;13.90;99.90
19646;DHT22;9971;52.446;13.452;2023-02-18T07:32:44;13.90;99.90
19646;DHT22;9971;52.446;13.452;2023-02-18T07:37:46;13.90;99.90
19646;DHT22;9971;52.446;13.452;2023-02-18T07:42:48;13.90;99.90
19646;DHT22;9971;52.446;13.452;2023-02-18T07:47:51;13.80;99.90
19646;DHT22;9971;52.446;13.452;2023-02-18T07:52:53;13.70;99.90
19646;DHT22;9971;52.446;13.452;2023-02-18T07:57:56;13.60;99.90
19646;DHT22;9971;52.446;13.452;2023-02-18T08:02:58;13.60;99.90
19646;DHT22;9971;52.446;13.452;2023-02-18T08:08:00;13.60;99.90
19646;DHT22;9971;52.446;13.452;2023-02-18T08:13:03;13.60;99.90
19646;DHT22;9971;52.446;13.452;2023-02-18T08:18:06;13.70;99.90
19646;DHT22;9971;52.446;13.452;2023-02-18T08:23:08;13.70;99.90
19646;DHT22;9971;52.446;13.452;2023-02-18T08:28:09;13.70;99.90
19646;DHT22;9971;52.446;13.452;2023-02-18T08:33:12;13.70;99.90
19646;DHT22;9971;52.446;13.452;2023-02-18T08:38:14;13.80;99.90
19646;DHT22;9971;52.446;13.452;2023-02-18T08:43:16;13.80;99.90
19646;DHT22;9971;52.446;13.452;2023-02-18T08:48:18;13.90;99.90
19646;DHT22;9971;52.446;13.452;2023-02-18T08:53:20;14.00;99.90
19646;DHT22;9971;52.446;13.452;2023-02-18T08:58:23;14.10;99.90
19646;DHT22;9971;52.446;13.452;2023-02-18T09:03:25;14.20;99.90
19646;DHT22;9971;52.446;13.452;2023-02-18T09:08:28;14.30;99.90
19646;DHT22;9971;52.446;13.452;2023-02-18T09:13:30;14.40;99.90
19646;DHT22;9971;52.446;13.452;2023-02-18T09:18:32;14.50;99.90
19646;DHT22;9971;52.446;13.452;2023-02-18T09:23:34;14.60;99.90
19646;DHT22;9971;52.446;13.452;2023-02-18T09:28:35;14.60;99.90
19646;DHT22;9971;52.446;13.452;2023-02-18T09:33:39;14.70;99.90
19646;DHT22;9971;52.446;13.452;2023-02-18T09:38:40;14.80;99.90
19646;DHT22;9971;52.446;13.452;2023-02-18T09:43:44;14.90;99.90
19646;DHT22;9971;52.446;13.452;2023-02-18T09:48:45;15.00;99.90
19646;DHT22;9971;52.446;13.452;2023-02-18T09:53:47;15.00;99.90
19646;DHT22;9971;52.446;13.452;2023-02-18T09:58:49;15.10;99.90
19646;DHT22;9971;52.446;13.452;2023-02-18T10:03:51;15.20;99.90
19646;DHT22;9971;52.446;13.452;2023-02-18T10:08:54;15.30;99.90
19646;DHT22;9971;52.446;13.452;2023-02-18T10:13:56;15.30;99.90
19646;DHT22;9971;52.446;13.452;2023-02-18T10:19:00;15.30;99.90
19646;DHT22;9971;52.446;13.452;2023-02-18T10:24:09;15.40;99.90
19646;DHT22;9971;52.446;13.452;2023-02-18T10:29:17;14.60;99.90
19646;DHT22;9971;52.446;13.452;2023-02-18T10:34:42;11.80;99.90
19646;DHT22;9971;52.446;13.452;2023-02-18T10:39:51;10.50;99.90
19646;DHT22;9971;52.446;13.452;2023-02-18T10:45:12;9.90;99.90
19646;DHT22;9971;52.446;13.452;2023-02-18T10:55:35;9.50;99.90
19646;DHT22;9971;52.446;13.452;2023-02-18T11:00:36;9.40;99.90
19646;DHT22;9971;52.446;13.452;2023-02-18T11:05:38;9.30;99.90
19646;DHT22;9971;52.446;13.452;2023-02-18T11:10:41;9.30;99.90
19646;DHT22;9971;52.446;13.452;2023-02-18T11:15:59;9.20;99.90
19646;DHT22;9971;52.446;13.452;2023-02-18T11:21:01;9.30;99.90
19646;DHT22;9971;52.446;13.452;2023-02-18T11:26:03;9.30;99.90
19646;DHT22;9971;52.446;13.452;2023-02-18T11:31:04;9.30;99.90
19646;DHT22;9971;52.446;13.452;2023-02-18T11:36:17;9.40;99.90
19646;DHT22;9971;52.446;13.452;2023-02-18T11:41:36;9.40;99.90
19646;DHT22;9971;52.446;13.452;2023-02-18T11:46:37;9.40;99.90
19646;DHT22;9971;52.446;13.452;2023-02-18T11:51:39;9.30;99.90
19646;DHT22;9971;52.446;13.452;2023-02-18T11:56:41;9.30;99.90
19646;DHT22;9971;52.446;13.452;2023-02-18T12:01:45;9.40;99.90
19646;DHT22;9971;52.446;13.452;2023-02-18T12:06:49;9.50;99.90
19646;DHT22;9971;52.446;13.452;2023-02-18T12:11:51;9.60;99.90
19646;DHT22;9971;52.446;13.452;2023-02-18T12:17:05;9.70;99.90
19646;DHT22;9971;52.446;13.452;2023-02-18T12:22:16;9.80;99.90
19646;DHT22;9971;52.446;13.452;2023-02-18T12:27:20;9.90;99.90
19646;DHT22;9971;52.446;13.452;2023-02-18T12:32:34;10.00;99.90
19646;DHT22;9971;52.446;13.452;2023-02-18T12:37:55;10.20;99.90
19646;DHT22;9971;52.446;13.452;2023-02-18T12:43:00;10.40;99.90
19646;DHT22;9971;52.446;13.452;2023-02-18T12:53:25;10.70;99.90
19646;DHT22;9971;52.446;13.452;2023-02-18T13:04:11;11.10;99.90
19646;DHT22;9971;52.446;13.452;2023-02-18T13:14:48;11.50;99.90
19646;DHT22;9971;52.446;13.452;2023-02-18T13:19:51;11.70;99.90
19646;DHT22;9971;52.446;13.452;2023-02-18T13:24:53;11.80;99.90
19646;DHT22;9971;52.446;13.452;2023-02-18T13:30:06;11.90;99.90
19646;DHT22;9971;52.446;13.452;2023-02-18T13:35:07;11.90;99.90
19646;DHT22;9971;52.446;13.452;2023-02-18T13:40:09;12.00;99.90
19646;DHT22;9971;52.446;13.452;2023-02-18T13:45:31;12.00;99.90
19646;DHT22;9971;52.446;13.452;2023-02-18T13:50:32;12.00;99.90
19646;DHT22;9971;52.446;13.452;2023-02-18T13:55:38;12.00;99.90
19646;DHT22;9971;52.446;13.452;2023-02-18T14:00:39;12.00;99.90
19646;DHT22;9971;52.446;13.452;2023-02-18T14:05:41;12.00;99.90
19646;DHT22;9971;52.446;13.452;2023-02-18T14:10:49;12.00;99.90
19646;DHT22;9971;52.446;13.452;2023-02-18T14:15:53;12.00;99.90
19646;DHT22;9971;52.446;13.452;2023-02-18T14:21:02;12.00;99.90
19646;DHT22;9971;52.446;13.452;2023-02-18T14:31:44;11.90;99.90
19646;DHT22;9971;52.446;13.452;2023-02-18T14:36:39;11.90;99.90
19646;DHT22;9971;52.446;13.452;2023-02-18T14:41:58;11.90;99.90
19646;DHT22;9971;52.446;13.452;2023-02-18T14:47:52;11.90;99.90
19646;DHT22;9971;52.446;13.452;2023-02-18T14:52:48;11.90;99.90
19646;DHT22;9971;52.446;13.452;2023-02-18T14:57:51;11.90;99.90
19646;DHT22;9971;52.446;13.452;2023-02-18T15:02:53;11.90;99.90
19646;DHT22;9971;52.446;13.452;2023-02-18T15:07:56;11.90;99.90
19646;DHT22;9971;52.446;13.452;2023-02-18T15:12:57;11.90;99.90
19646;DHT22;9971;52.446;13.452;2023-02-18T15:18:00;11.90;99.90
19646;DHT22;9971;52.446;13.452;2023-02-18T15:23:02;11.90;99.90
19646;DHT22;9971;52.446;13.452;2023-02-18T15:28:04;11.90;99.90
19646;DHT22;9971;52.446;13.452;2023-02-18T15:33:09;12.00;99.90
19646;DHT22;9971;52.446;13.452;2023-02-18T15:38:13;11.90;99.90
19646;DHT22;9971;52.446;13.452;2023-02-18T15:43:15;12.00;99.90
19646;DHT22;9971;52.446;13.452;2023-02-18T15:48:26;12.00;99.90
19646;DHT22;9971;52.446;13.452;2023-02-18T15:53:26;12.00;99.90
19646;DHT22;9971;52.446;13.452;2023-02-18T15:58:29;12.00;99.90
19646;DHT22;9971;52.446;13.452;2023-02-18T16:03:31;11.90;99.90
19646;DHT22;9971;52.446;13.452;2023-02-18T16:08:32;11.90;99.90
19646;DHT22;9971;52.446;13.452;2023-02-18T16:13:35;11.80;99.90
19646;DHT22;9971;52.446;13.452;2023-02-18T16:18:37;11.80;99.90
19646;DHT22;9971;52.446;13.452;2023-02-18T16:23:42;11.70;99.90
19646;DHT22;9971;52.446;13.452;2023-02-18T16:28:44;11.70;99.90
19646;DHT22;9971;52.446;13.452;2023-02-18T16:33:47;11.60;99.90
19646;DHT22;9971;52.446;13.452;2023-02-18T16:38:49;11.70;99.90
19646;DHT22;9971;52.446;13.452;2023-02-18T16:43:51;11.70;99.90
19646;DHT22;9971;52.446;13.452;2023-02-18T16:48:53;11.60;99.90
19646;DHT22;9971;52.446;13.452;2023-02-18T16:53:56;11.50;99.90
19646;DHT22;9971;52.446;13.452;2023-02-18T16:58:58;11.40;99.90
19646;DHT22;9971;52.446;13.452;2023-02-18T17:04:00;11.40;99.90
19646;DHT22;9971;52.446;13.452;2023-02-18T17:09:05;11.40;99.90
19646;DHT22;9971;52.446;13.452;2023-02-18T17:14:04;11.30;99.90
19646;DHT22;9971;52.446;13.452;2023-02-18T17:19:07;11.10;99.90
19646;DHT22;9971;52.446;13.452;2023-02-18T17:24:12;10.90;99.90
19646;DHT22;9971;52.446;13.452;2023-02-18T17:29:14;10.70;99.90
19646;DHT22;9971;52.446;13.452;2023-02-18T17:34:20;10.50;99.90
19646;DHT22;9971;52.446;13.452;2023-02-18T17:39:19;10.40;99.90
19646;DHT22;9971;52.446;13.452;2023-02-18T17:44:22;10.30;99.90
19646;DHT22;9971;52.446;13.452;2023-02-18T17:49:24;10.20;99.90
19646;DHT22;9971;52.446;13.452;2023-02-18T17:54:26;10.00;99.90
19646;DHT22;9971;52.446;13.452;2023-02-18T17:59:29;10.00;99.90
19646;DHT22;9971;52.446;13.452;2023-02-18T18:04:31;10.00;99.90
19646;DHT22;9971;52.446;13.452;2023-02-18T18:09:34;10.00;99.90
19646;DHT22;9971;52.446;13.452;2023-02-18T18:14:36;9.90;99.90
19646;DHT22;9971;52.446;13.452;2023-02-18T18:19:39;9.90;99.90
19646;DHT22;9971;52.446;13.452;2023-02-18T18:24:41;9.90;99.90
19646;DHT22;9971;52.446;13.452;2023-02-18T18:29:43;9.90;99.90
19646;DHT22;9971;52.446;13.452;2023-02-18T18:34:46;9.90;99.90
19646;DHT22;9971;52.446;13.452;2023-02-18T18:39:48;9.80;99.90
19646;DHT22;9971;52.446;13.452;2023-02-18T18:44:51;9.80;99.90
19646;DHT22;9971;52.446;13.452;2023-02-18T18:49:53;9.70;99.90
19646;DHT22;9971;52.446;13.452;2023-02-18T18:54:56;9.70;99.90
19646;DHT22;9971;52.446;13.452;2023-02-18T18:59:58;9.70;99.90
19646;DHT22;9971;52.446;13.452;2023-02-18T19:05:01;9.70;99.90
19646;DHT22;9971;52.446;13.452;2023-02-18T19:10:03;9.60;99.90
19646;DHT22;9971;52.446;13.452;2023-02-18T19:15:06;9.60;99.90
19646;DHT22;9971;52.446;13.452;2023-02-18T19:20:11;9.60;99.90
19646;DHT22;9971;52.446;13.452;2023-02-18T19:25:11;9.60;99.90
19646;DHT22;9971;52.446;13.452;2023-02-18T19:30:15;9.50;99.90
19646;DHT22;9971;52.446;13.452;2023-02-18T19:35:16;9.50;99.90
19646;DHT22;9971;52.446;13.452;2023-02-18T19:40:22;9.40;99.90
19646;DHT22;9971;52.446;13.452;2023-02-18T19:45:23;9.40;99.90
19646;DHT22;9971;52.446;13.452;2023-02-18T19:50:26;9.40;99.90
19646;DHT22;9971;52.446;13.452;2023-02-18T19:55:27;9.30;99.90
19646;DHT22;9971;52.446;13.452;2023-02-18T20:00:30;9.30;99.90
19646;DHT22;9971;52.446;13.452;2023-02-18T20:05:35;9.30;99.90
19646;DHT22;9971;52.446;13.452;2023-02-18T20:10:34;9.20;99.90
19646;DHT22;9971;52.446;13.452;2023-02-18T20:15:38;9.20;99.90
19646;DHT22;9971;52.446;13.452;2023-02-18T20:20:40;9.10;99.90
19646;DHT22;9971;52.446;13.452;2023-02-18T20:25:42;9.10;99.90
19646;DHT22;9971;52.446;13.452;2023-02-18T20:30:44;9.10;99.90
19646;DHT22;9971;52.446;13.452;2023-02-18T20:35:53;9.10;99.90
19646;DHT22;9971;52.446;13.452;2023-02-18T20:40:49;9.00;99.90
19646;DHT22;9971;52.446;13.452;2023-02-18T20:45:52;9.00;99.90
19646;DHT22;9971;52.446;13.452;2023-02-18T20:50:54;9.00;99.90
19646;DHT22;9971;52.446;13.452;2023-02-18T20:55:56;9.00;99.90
19646;DHT22;9971;52.446;13.452;2023-02-18T21:01:03;9.00;99.90
19646;DHT22;9971;52.446;13.452;2023-02-18T21:06:07;8.90;99.90
19646;DHT22;9971;52.446;13.452;2023-02-18T21:11:08;8.90;99.90
19646;DHT22;9971;52.446;13.452;2023-02-18T21:16:10;8.90;99.90
19646;DHT22;9971;52.446;13.452;2023-02-18T21:21:13;8.90;99.90
19646;DHT22;9971;52.446;13.452;2023-02-18T21:26:16;8.90;99.90
19646;DHT22;9971;52.446;13.452;2023-02-18T21:31:19;8.90;99.90
19646;DHT22;9971;52.446;13.452;2023-02-18T21:36:20;8.90;99.90
19646;DHT22;9971;52.446;13.452;2023-02-18T21:41:23;8.90;99.90
19646;DHT22;9971;52.446;13.452;2023-02-18T21:46:25;8.80;99.90
19646;DHT22;9971;52.446;13.452;2023-02-18T21:51:27;8.80;99.90
19646;DHT22;9971;52.446;13.452;2023-02-18T21:56:34;8.80;99.90
19646;DHT22;9971;52.446;13.452;2023-02-18T22:01:36;8.80;99.90
19646;DHT22;9971;52.446;13.452;2023-02-18T22:06:38;8.70;99.90
19646;DHT22;9971;52.446;13.452;2023-02-18T22:11:40;8.70;99.90
19646;DHT22;9971;52.446;13.452;2023-02-18T22:16:42;8.60;99.90
19646;DHT22;9971;52.446;13.452;2023-02-18T22:21:44;8.60;99.90
19646;DHT22;9971;52.446;13.452;2023-02-18T22:26:46;8.60;99.90
19646;DHT22;9971;52.446;13.452;2023-02-18T22:31:48;8.60;99.90
19646;DHT22;9971;52.446;13.452;2023-02-18T22:36:50;8.60;99.90
19646;DHT22;9971;52.446;13.452;2023-02-18T22:41:53;8.50;99.90
19646;DHT22;9971;52.446;13.452;2023-02-18T22:46:55;8.50;99.90
19646;DHT22;9971;52.446;13.452;2023-02-18T22:51:57;8.50;99.90
19646;DHT22;9971;52.446;13.452;2023-02-18T22:56:59;8.50;99.90
19646;DHT22;9971;52.446;13.452;2023-02-18T23:02:02;8.50;99.90
19646;DHT22;9971;52.446;13.452;2023-02-18T23:07:05;8.40;99.90
19646;DHT22;9971;52.446;13.452;2023-02-18T23:12:07;8.40;99.90
19646;DHT22;9971;52.446;13.452;2023-02-18T23:17:10;8.40;99.90
19646;DHT22;9971;52.446;13.452;2023-02-18T23:22:14;8.30;99.90
19646;DHT22;9971;52.446;13.452;2023-02-18T23:27:15;8.30;99.90
19646;DHT22;9971;52.446;13.452;2023-02-18T23:32:17;8.30;99.90
19646;DHT22;9971;52.446;13.452;2023-02-18T23:37:20;8.30;99.90
19646;DHT22;9971;52.446;13.452;2023-02-18T23:42:22;8.30;99.90
19646;DHT22;9971;52.446;13.452;2023-02-18T23:47:24;8.30;99.90
19646;DHT22;9971;52.446;13.452;2023-02-18T23:52:27;8.20;99.90
19646;DHT22;9971;52.446;13.452;2023-02-18T23:57:29;8.20;99.90
